createdAt,value
2022-08-03T00:00:02.976Z,98275.84
2022-08-03T00:01:07.365Z,98279.88
2022-08-03T00:02:10.588Z,98279.34
2022-08-03T00:03:13.659Z,98278.16
2022-08-03T00:04:17.364Z,98276.59
2022-08-03T00:05:20.537Z,98273.28
2022-08-03T00:06:23.480Z,98273.41
2022-08-03T00:07:26.493Z,98278.53
2022-08-03T00:08:29.674Z,98283.16
2022-08-03T00:09:35.734Z,98282.16
2022-08-03T00:10:39.063Z,98279.44
2022-08-03T00:11:42.131Z,98285.72
2022-08-03T00:12:45.175Z,98281.38
2022-08-03T00:13:48.271Z,98281.50
2022-08-03T00:14:51.223Z,98286.75
2022-08-03T00:15:54.656Z,98289.00
2022-08-03T00:16:58.407Z,98286.09
2022-08-03T00:18:01.521Z,98288.31
2022-08-03T00:19:05.033Z,98278.78
2022-08-03T00:20:08.345Z,98284.25
2022-08-03T00:21:11.664Z,98290.97
2022-08-03T00:22:14.695Z,98289.78
2022-08-03T00:23:18.082Z,98293.63
2022-08-03T00:24:21.302Z,98293.75
2022-08-03T00:25:24.415Z,98294.34
2022-08-03T00:26:27.477Z,98297.56
2022-08-03T00:27:32.679Z,98291.03
2022-08-03T00:28:37.394Z,98301.63
2022-08-03T00:29:59.524Z,98288.44
2022-08-03T00:31:03.340Z,98291.47
2022-08-03T00:32:06.692Z,98292.31
2022-08-03T00:33:13.843Z,98287.63
2022-08-03T00:34:17.482Z,98293.37
2022-08-03T00:35:50.351Z,98290.12
2022-08-03T00:36:54.224Z,98293.66
2022-08-03T00:37:57.901Z,98303.25
2022-08-03T00:39:01.477Z,98295.91
2022-08-03T00:40:08.243Z,98291.50
2022-08-03T00:41:11.177Z,98297.69
2022-08-03T00:42:18.780Z,98297.78
2022-08-03T00:43:27.142Z,98290.59
2022-08-03T00:44:30.097Z,98297.38
2022-08-03T00:45:39.110Z,98296.94
2022-08-03T00:46:42.107Z,98297.56
2022-08-03T00:47:46.181Z,98292.88
2022-08-03T00:48:52.763Z,98297.47
2022-08-03T00:49:55.725Z,98290.00
2022-08-03T00:50:59.270Z,98295.91
2022-08-03T00:52:09.467Z,98290.81
2022-08-03T00:53:13.766Z,98296.47
2022-08-03T00:54:16.659Z,98297.28
2022-08-03T00:55:19.917Z,98289.62
2022-08-03T00:56:23.018Z,98293.22
2022-08-03T00:57:25.923Z,98293.37
2022-08-03T00:58:29.992Z,98295.88
2022-08-03T00:59:32.935Z,98287.56
2022-08-03T01:00:39.256Z,98293.66
2022-08-03T01:01:42.529Z,98291.72
2022-08-03T01:02:45.772Z,98292.19
2022-08-03T01:03:48.704Z,98289.81
2022-08-03T01:04:51.558Z,98294.50
2022-08-03T01:06:13.570Z,98287.22
2022-08-03T01:07:55.303Z,98288.44
2022-08-03T01:09:12.865Z,98288.75
2022-08-03T01:10:38.645Z,98285.59
2022-08-03T01:12:00.828Z,98289.19
2022-08-03T01:14:01.874Z,98287.97
2022-08-03T01:14:50.469Z,98289.00
2022-08-03T01:15:58.421Z,98293.47
2022-08-03T01:17:11.871Z,98289.34
2022-08-03T01:18:32.029Z,98292.44
2022-08-03T01:20:03.093Z,98295.16
2022-08-03T01:21:28.275Z,98295.91
2022-08-03T01:23:16.140Z,98287.34
2022-08-03T01:25:05.669Z,98296.16
2022-08-03T01:26:48.400Z,98293.00
2022-08-03T01:27:58.229Z,98296.16
2022-08-03T01:29:09.735Z,98291.50
2022-08-03T01:30:14.195Z,98288.06
2022-08-03T01:31:24.638Z,98286.87
2022-08-03T01:33:20.909Z,98294.44
2022-08-03T01:34:29.015Z,98293.87
2022-08-03T01:36:02.552Z,98293.44
2022-08-03T01:38:26.790Z,98295.91
2022-08-03T01:39:33.732Z,98292.66
2022-08-03T01:40:40.143Z,98289.91
2022-08-03T01:41:59.771Z,98288.88
2022-08-03T01:43:07.213Z,98287.69
2022-08-03T01:44:30.046Z,98299.38
2022-08-03T01:45:37.463Z,98286.94
2022-08-03T01:46:48.868Z,98292.38
2022-08-03T01:47:54.529Z,98296.66
2022-08-03T01:49:00.394Z,98289.81
2022-08-03T01:50:15.648Z,98289.72
2022-08-03T01:51:24.141Z,98283.16
2022-08-03T01:52:49.599Z,98279.03
2022-08-03T01:53:55.328Z,98283.94
2022-08-03T01:55:00.299Z,98286.09
2022-08-03T01:56:07.203Z,98287.97
2022-08-03T01:57:12.135Z,98283.06
2022-08-03T01:58:17.843Z,98283.34
2022-08-03T01:59:23.694Z,98288.06
2022-08-03T02:00:28.372Z,98290.00
2022-08-03T02:02:32.144Z,98294.13
2022-08-03T02:02:59.543Z,98287.69
2022-08-03T02:04:04.595Z,98291.47
2022-08-03T02:05:13.454Z,98286.22
2022-08-03T02:07:02.189Z,98295.34
2022-08-03T02:07:50.492Z,98289.25
2022-08-03T02:08:56.380Z,98289.72
2022-08-03T02:10:03.479Z,98284.91
2022-08-03T02:11:07.923Z,98282.81
2022-08-03T02:12:14.635Z,98296.25
2022-08-03T02:13:23.126Z,98294.47
2022-08-03T02:14:28.896Z,98290.97
2022-08-03T02:15:34.454Z,98287.81
2022-08-03T02:16:38.304Z,98290.59
2022-08-03T02:17:44.909Z,98293.25
2022-08-03T02:18:49.696Z,98289.25
2022-08-03T02:19:57.026Z,98294.47
2022-08-03T02:21:05.342Z,98289.09
2022-08-03T02:22:16.567Z,98289.91
2022-08-03T02:23:21.315Z,98292.56
2022-08-03T02:25:34.471Z,98293.06
2022-08-03T02:27:53.550Z,98298.12
2022-08-03T02:29:02.698Z,98294.84
2022-08-03T02:30:09.968Z,98299.38
2022-08-03T02:31:18.690Z,98295.19
2022-08-03T02:32:31.154Z,98294.06
2022-08-03T02:33:43.529Z,98298.53
2022-08-03T02:34:51.062Z,98289.88
2022-08-03T02:35:56.232Z,98289.88
2022-08-03T02:37:01.202Z,98288.69
2022-08-03T02:38:10.964Z,98292.97
2022-08-03T02:39:20.880Z,98298.47
2022-08-03T02:40:28.275Z,98294.25
2022-08-03T02:41:55.578Z,98297.69
2022-08-03T02:43:13.172Z,98293.34
2022-08-03T02:44:21.926Z,98297.09
2022-08-03T02:45:28.389Z,98294.09
2022-08-03T02:46:38.275Z,98284.75
2022-08-03T02:47:53.797Z,98286.28
2022-08-03T02:49:50.084Z,98295.03
2022-08-03T02:50:31.036Z,98287.34
2022-08-03T02:51:38.197Z,98294.09
2022-08-03T02:52:45.423Z,98293.34
2022-08-03T02:53:51.046Z,98294.28
2022-08-03T02:55:00.166Z,98296.16
2022-08-03T02:56:06.298Z,98298.81
2022-08-03T02:57:12.157Z,98298.12
2022-08-03T02:58:21.628Z,98303.00
2022-08-03T02:59:26.350Z,98298.56
2022-08-03T03:00:34.821Z,98299.50
2022-08-03T03:01:40.253Z,98294.88
2022-08-03T03:02:45.699Z,98294.25
2022-08-03T03:03:52.128Z,98298.53
2022-08-03T03:05:55.047Z,98303.16
2022-08-03T03:06:27.511Z,98292.81
2022-08-03T03:07:51.188Z,98295.81
2022-08-03T03:08:59.921Z,98294.00
2022-08-03T03:10:05.687Z,98295.28
2022-08-03T03:11:10.599Z,98290.72
2022-08-03T03:12:15.205Z,98292.69
2022-08-03T03:13:21.340Z,98294.25
2022-08-03T03:14:33.215Z,98296.22
2022-08-03T03:15:39.599Z,98297.78
2022-08-03T03:16:45.016Z,98295.19
2022-08-03T03:17:54.288Z,98288.50
2022-08-03T03:18:58.867Z,98298.00
2022-08-03T03:20:03.139Z,98291.41
2022-08-03T03:21:09.933Z,98292.75
2022-08-03T03:22:15.531Z,98297.22
2022-08-03T03:23:22.155Z,98290.00
2022-08-03T03:24:25.837Z,98293.00
2022-08-03T03:25:33.310Z,98293.78
2022-08-03T03:26:40.691Z,98288.88
2022-08-03T03:27:50.857Z,98294.47
2022-08-03T03:28:54.356Z,98292.16
2022-08-03T03:29:58.534Z,98296.72
2022-08-03T03:31:01.687Z,98291.47
2022-08-03T03:32:04.734Z,98299.28
2022-08-03T03:33:12.866Z,98289.44
2022-08-03T03:34:15.867Z,98295.91
2022-08-03T03:35:19.719Z,98299.09
2022-08-03T03:36:22.603Z,98302.19
2022-08-03T03:37:27.287Z,98300.09
2022-08-03T03:38:33.114Z,98302.31
2022-08-03T03:39:36.679Z,98297.94
2022-08-03T03:40:39.684Z,98294.44
2022-08-03T03:41:42.866Z,98296.94
2022-08-03T03:42:46.147Z,98295.13
2022-08-03T03:43:50.794Z,98286.03
2022-08-03T03:45:00.074Z,98300.44
2022-08-03T03:46:13.526Z,98300.59
2022-08-03T03:47:16.632Z,98295.44
2022-08-03T03:48:19.923Z,98291.16
2022-08-03T03:49:23.116Z,98297.00
2022-08-03T03:50:26.420Z,98299.91
2022-08-03T03:51:29.199Z,98294.94
2022-08-03T03:52:33.042Z,98296.47
2022-08-03T03:53:35.802Z,98300.34
2022-08-03T03:54:43.180Z,98292.94
2022-08-03T03:55:57.804Z,98290.97
2022-08-03T03:57:05.551Z,98297.56
2022-08-03T03:58:08.965Z,98302.44
2022-08-03T03:59:11.890Z,98303.16
2022-08-03T04:00:16.570Z,98306.88
2022-08-03T04:01:19.838Z,98298.63
2022-08-03T04:02:22.755Z,98298.25
2022-08-03T04:03:25.438Z,98300.91
2022-08-03T04:04:46.715Z,98296.59
2022-08-03T04:06:09.523Z,98304.06
2022-08-03T04:07:31.186Z,98299.66
2022-08-03T04:08:54.642Z,98297.84
2022-08-03T04:10:16.901Z,98309.94
2022-08-03T04:11:34.613Z,98301.91
2022-08-03T04:12:38.811Z,98319.75
2022-08-03T04:13:55.506Z,98314.00
2022-08-03T04:15:06.086Z,98313.84
2022-08-03T04:16:12.750Z,98314.63
2022-08-03T04:17:17.158Z,98309.72
2022-08-03T04:18:22.763Z,98315.41
2022-08-03T04:19:33.373Z,98321.72
2022-08-03T04:20:39.074Z,98321.34
2022-08-03T04:21:44.585Z,98324.56
2022-08-03T04:22:51.187Z,98323.38
2022-08-03T04:23:58.849Z,98331.56
2022-08-03T04:25:09.875Z,98329.41
2022-08-03T04:26:15.643Z,98329.97
2022-08-03T04:27:23.604Z,98335.41
2022-08-03T04:28:30.945Z,98325.84
2022-08-03T04:29:38.503Z,98331.84
2022-08-03T04:30:50.896Z,98329.09
2022-08-03T04:31:56.067Z,98332.63
2022-08-03T04:33:01.554Z,98333.19
2022-08-03T04:34:05.098Z,98334.66
2022-08-03T04:35:08.573Z,98331.66
2022-08-03T04:36:17.269Z,98334.72
2022-08-03T04:37:34.195Z,98333.69
2022-08-03T04:38:53.920Z,98331.56
2022-08-03T04:40:02.224Z,98341.22
2022-08-03T04:41:05.250Z,98329.75
2022-08-03T04:42:12.034Z,98337.56
2022-08-03T04:43:18.800Z,98337.81
2022-08-03T04:44:27.866Z,98322.78
2022-08-03T04:45:32.992Z,98334.16
2022-08-03T04:46:38.871Z,98344.66
2022-08-03T04:47:50.743Z,98338.84
2022-08-03T04:48:54.033Z,98338.94
2022-08-03T04:51:04.988Z,98345.41
2022-08-03T04:52:08.888Z,98347.16
2022-08-03T04:53:11.622Z,98345.72
2022-08-03T04:54:16.312Z,98348.78
2022-08-03T04:55:32.083Z,98349.91
2022-08-03T04:56:34.868Z,98347.09
2022-08-03T04:57:37.654Z,98341.84
2022-08-03T04:58:40.384Z,98353.00
2022-08-03T04:59:43.275Z,98359.91
2022-08-03T05:00:46.021Z,98363.25
2022-08-03T05:01:48.728Z,98356.97
2022-08-03T05:02:51.691Z,98353.19
2022-08-03T05:03:54.377Z,98357.03
2022-08-03T05:04:57.185Z,98362.50
2022-08-03T05:06:09.378Z,98358.78
2022-08-03T05:07:24.138Z,98355.84
2022-08-03T05:08:28.404Z,98366.84
2022-08-03T05:09:50.443Z,98362.44
2022-08-03T05:10:59.100Z,98362.56
2022-08-03T05:12:02.327Z,98357.38
2022-08-03T05:13:13.139Z,98363.13
2022-08-03T05:14:15.809Z,98370.94
2022-08-03T05:15:18.521Z,98364.47
2022-08-03T05:16:21.166Z,98367.19
2022-08-03T05:17:24.140Z,98364.59
2022-08-03T05:18:27.083Z,98362.00
2022-08-03T05:19:30.121Z,98364.03
2022-08-03T05:20:33.238Z,98365.56
2022-08-03T05:21:51.793Z,98371.72
2022-08-03T05:22:55.688Z,98367.63
2022-08-03T05:23:58.340Z,98372.31
2022-08-03T05:25:02.296Z,98371.28
2022-08-03T05:26:05.115Z,98372.06
2022-08-03T05:27:08.182Z,98375.75
2022-08-03T05:28:12.309Z,98373.94
2022-08-03T05:29:15.011Z,98375.69
2022-08-03T05:30:32.600Z,98380.66
2022-08-03T05:31:36.965Z,98377.31
2022-08-03T05:32:39.611Z,98366.44
2022-08-03T05:33:45.241Z,98370.37
2022-08-03T05:34:47.914Z,98376.94
2022-08-03T05:36:02.728Z,98379.69
2022-08-03T05:37:07.662Z,98381.31
2022-08-03T05:38:10.926Z,98372.25
2022-08-03T05:39:14.566Z,98382.56
2022-08-03T05:40:17.356Z,98386.44
2022-08-03T05:41:36.667Z,98377.06
2022-08-03T05:42:40.200Z,98384.38
2022-08-03T05:43:43.130Z,98382.22
2022-08-03T05:44:45.774Z,98388.34
2022-08-03T05:45:48.822Z,98386.50
2022-08-03T05:47:11.775Z,98384.63
2022-08-03T05:48:14.619Z,98386.56
2022-08-03T05:49:21.451Z,98393.84
2022-08-03T05:50:24.377Z,98382.09
2022-08-03T05:51:30.387Z,98385.97
2022-08-03T05:52:33.027Z,98385.72
2022-08-03T05:53:35.911Z,98384.97
2022-08-03T05:54:56.847Z,98383.50
2022-08-03T05:56:14.577Z,98383.94
2022-08-03T05:57:19.334Z,98381.66
2022-08-03T05:58:29.966Z,98388.53
2022-08-03T05:59:38.394Z,98394.31
2022-08-03T06:00:41.696Z,98397.38
2022-08-03T06:01:44.409Z,98397.41
2022-08-03T06:03:54.611Z,98393.78
2022-08-03T06:04:57.351Z,98396.81
2022-08-03T06:06:03.409Z,98392.63
2022-08-03T06:07:07.627Z,98398.38
2022-08-03T06:08:10.781Z,98402.34
2022-08-03T06:09:18.348Z,98401.53
2022-08-03T06:10:37.491Z,98388.56
2022-08-03T06:11:42.221Z,98402.72
2022-08-03T06:12:49.208Z,98403.56
2022-08-03T06:13:51.847Z,98396.00
2022-08-03T06:14:54.525Z,98395.59
2022-08-03T06:15:57.234Z,98403.97
2022-08-03T06:17:00.121Z,98403.25
2022-08-03T06:18:02.894Z,98402.94
2022-08-03T06:19:05.791Z,98399.09
2022-08-03T06:20:12.359Z,98403.22
2022-08-03T06:21:16.526Z,98399.03
2022-08-03T06:22:19.223Z,98399.84
2022-08-03T06:23:53.251Z,98402.56
2022-08-03T06:24:53.475Z,98398.00
2022-08-03T06:25:57.346Z,98405.31
2022-08-03T06:27:00.647Z,98401.81
2022-08-03T06:28:05.541Z,98401.88
2022-08-03T06:29:08.603Z,98405.72
2022-08-03T06:30:14.029Z,98400.75
2022-08-03T06:31:18.726Z,98404.97
2022-08-03T06:32:23.104Z,98405.75
2022-08-03T06:34:30.151Z,98406.53
2022-08-03T06:34:49.625Z,98404.62
2022-08-03T06:35:52.426Z,98408.06
2022-08-03T06:37:01.386Z,98407.31
2022-08-03T06:38:04.965Z,98411.91
2022-08-03T06:39:08.364Z,98411.91
2022-08-03T06:40:13.949Z,98413.47
2022-08-03T06:41:17.013Z,98412.75
2022-08-03T06:42:20.629Z,98409.66
2022-08-03T06:43:25.265Z,98415.81
2022-08-03T06:44:27.963Z,98417.72
2022-08-03T06:45:31.719Z,98415.81
2022-08-03T06:46:35.478Z,98418.84
2022-08-03T06:47:39.389Z,98414.22
2022-08-03T06:48:47.832Z,98416.16
2022-08-03T06:50:16.780Z,98417.69
2022-08-03T06:51:14.219Z,98413.84
2022-08-03T06:52:37.897Z,98417.69
2022-08-03T06:53:39.527Z,98420.34
2022-08-03T06:54:42.122Z,98422.66
2022-08-03T06:55:45.457Z,98424.97
2022-08-03T06:56:49.045Z,98415.00
2022-08-03T06:57:52.780Z,98426.09
2022-08-03T06:58:56.101Z,98420.72
2022-08-03T07:00:10.870Z,98422.56
2022-08-03T07:01:15.253Z,98428.34
2022-08-03T07:02:21.782Z,98425.63
2022-08-03T07:03:24.533Z,98423.72
2022-08-03T07:04:27.252Z,98430.19
2022-08-03T07:05:32.214Z,98424.47
2022-08-03T07:06:34.921Z,98420.66
2022-08-03T07:07:38.211Z,98428.69
2022-08-03T07:08:41.432Z,98425.59
2022-08-03T07:09:56.568Z,98428.22
2022-08-03T07:11:04.214Z,98429.03
2022-08-03T07:12:07.114Z,98425.25
2022-08-03T07:13:09.855Z,98429.41
2022-08-03T07:14:12.507Z,98429.44
2022-08-03T07:15:20.247Z,98430.16
2022-08-03T07:16:37.968Z,98431.28
2022-08-03T07:17:41.263Z,98430.50
2022-08-03T07:18:44.466Z,98430.13
2022-08-03T07:19:47.032Z,98437.75
2022-08-03T07:20:49.784Z,98434.78
2022-08-03T07:21:53.570Z,98437.00
2022-08-03T07:22:56.757Z,98434.31
2022-08-03T07:23:59.469Z,98430.87
2022-08-03T07:25:02.429Z,98432.72
2022-08-03T07:26:05.456Z,98433.06
2022-08-03T07:27:11.262Z,98439.22
2022-08-03T07:28:14.673Z,98436.06
2022-08-03T07:29:17.393Z,98430.56
2022-08-03T07:30:20.133Z,98432.78
2022-08-03T07:31:22.766Z,98428.91
2022-08-03T07:32:26.193Z,98432.94
2022-08-03T07:33:28.986Z,98425.84
2022-08-03T07:34:31.839Z,98441.69
2022-08-03T07:35:34.911Z,98435.94
2022-08-03T07:36:38.301Z,98433.19
2022-08-03T07:37:41.036Z,98443.19
2022-08-03T07:38:58.528Z,98441.66
2022-08-03T07:40:02.470Z,98433.81
2022-08-03T07:41:05.334Z,98433.41
2022-08-03T07:42:08.299Z,98436.88
2022-08-03T07:43:14.275Z,98431.87
2022-08-03T07:44:17.240Z,98431.28
2022-08-03T07:45:19.886Z,98429.84
2022-08-03T07:46:22.728Z,98433.94
2022-08-03T07:47:35.014Z,98432.38
2022-08-03T07:48:38.837Z,98428.78
2022-08-03T07:49:41.960Z,98427.28
2022-08-03T07:50:48.283Z,98424.91
2022-08-03T07:52:11.032Z,98428.97
2022-08-03T07:53:13.835Z,98426.66
2022-08-03T07:54:16.520Z,98429.59
2022-08-03T07:55:21.296Z,98428.12
2022-08-03T07:56:28.275Z,98427.97
2022-08-03T07:57:31.123Z,98424.88
2022-08-03T07:58:37.314Z,98425.34
2022-08-03T08:00:01.346Z,98427.47
2022-08-03T08:01:02.858Z,98430.56
2022-08-03T08:02:07.476Z,98425.47
2022-08-03T08:03:10.385Z,98428.50
2022-08-03T08:04:13.048Z,98427.62
2022-08-03T08:05:15.818Z,98430.63
2022-08-03T08:06:18.618Z,98434.25
2022-08-03T08:07:21.339Z,98433.34
2022-08-03T08:08:24.587Z,98424.22
2022-08-03T08:09:27.266Z,98432.09
2022-08-03T08:10:33.093Z,98430.03
2022-08-03T08:11:39.750Z,98430.19
2022-08-03T08:12:42.763Z,98425.88
2022-08-03T08:13:49.300Z,98427.62
2022-08-03T08:14:55.405Z,98432.81
2022-08-03T08:15:58.230Z,98427.34
2022-08-03T08:17:04.461Z,98426.09
2022-08-03T08:18:12.957Z,98430.87
2022-08-03T08:19:17.084Z,98434.84
2022-08-03T08:20:28.310Z,98429.66
2022-08-03T08:21:53.533Z,98427.94
2022-08-03T08:23:01.317Z,98430.25
2022-08-03T08:24:10.735Z,98429.22
2022-08-03T08:25:16.516Z,98430.19
2022-08-03T08:26:22.513Z,98437.25
2022-08-03T08:27:25.632Z,98423.34
2022-08-03T08:28:32.281Z,98433.25
2022-08-03T08:29:35.865Z,98431.22
2022-08-03T08:30:50.721Z,98432.34
2022-08-03T08:31:53.434Z,98434.00
2022-08-03T08:32:56.280Z,98434.91
2022-08-03T08:34:04.080Z,98429.72
2022-08-03T08:35:08.891Z,98435.69
2022-08-03T08:36:15.219Z,98439.75
2022-08-03T08:37:18.611Z,98434.84
2022-08-03T08:38:23.662Z,98434.00
2022-08-03T08:39:26.446Z,98430.91
2022-08-03T08:40:29.300Z,98430.37
2022-08-03T08:41:34.940Z,98426.56
2022-08-03T08:42:40.300Z,98434.00
2022-08-03T08:43:47.482Z,98432.41
2022-08-03T08:44:50.216Z,98429.19
2022-08-03T08:45:54.579Z,98430.25
2022-08-03T08:47:00.184Z,98428.56
2022-08-03T08:48:08.067Z,98429.34
2022-08-03T08:49:12.929Z,98424.84
2022-08-03T08:50:27.851Z,98425.25
2022-08-03T08:51:51.011Z,98430.66
2022-08-03T08:53:02.907Z,98426.75
2022-08-03T08:54:08.007Z,98427.09
2022-08-03T08:55:14.713Z,98422.66
2022-08-03T08:56:18.704Z,98436.22
2022-08-03T08:57:41.890Z,98417.06
2022-08-03T08:58:53.264Z,98422.78
2022-08-03T08:59:57.533Z,98424.88
2022-08-03T09:01:00.419Z,98422.53
2022-08-03T09:02:03.510Z,98424.69
2022-08-03T09:03:07.148Z,98429.44
2022-08-03T09:04:10.412Z,98428.06
2022-08-03T09:05:18.378Z,98426.22
2022-08-03T09:06:24.546Z,98426.16
2022-08-03T09:07:28.881Z,98420.72
2022-08-03T09:08:35.900Z,98425.44
2022-08-03T09:10:08.362Z,98419.81
2022-08-03T09:11:01.413Z,98423.41
2022-08-03T09:12:35.094Z,98414.88
2022-08-03T09:13:27.306Z,98418.56
2022-08-03T09:14:35.336Z,98410.84
2022-08-03T09:17:08.477Z,98417.56
2022-08-03T09:18:32.949Z,98423.16
2022-08-03T09:19:36.542Z,98416.28
2022-08-03T09:20:39.534Z,98411.25
2022-08-03T09:21:42.413Z,98417.09
2022-08-03T09:22:54.779Z,98413.47
2022-08-03T09:24:02.932Z,98415.31
2022-08-03T09:25:24.264Z,98419.81
2022-08-03T09:26:33.364Z,98410.97
2022-08-03T09:27:50.596Z,98412.69
2022-08-03T09:29:04.681Z,98404.00
2022-08-03T09:30:33.794Z,98411.34
2022-08-03T09:31:39.193Z,98399.34
2022-08-03T09:32:47.723Z,98401.97
2022-08-03T09:33:50.661Z,98407.63
2022-08-03T09:34:58.055Z,98413.72
2022-08-03T09:36:01.010Z,98401.84
2022-08-03T09:37:15.319Z,98409.56
2022-08-03T09:38:29.063Z,98414.19
2022-08-03T09:39:41.191Z,98404.06
2022-08-03T09:40:46.586Z,98410.06
2022-08-03T09:42:05.795Z,98403.47
2022-08-03T09:43:09.161Z,98406.41
2022-08-03T09:44:24.079Z,98404.06
2022-08-03T09:45:30.234Z,98402.59
2022-08-03T09:46:50.177Z,98399.69
2022-08-03T09:48:00.055Z,98397.09
2022-08-03T09:49:13.406Z,98406.50
2022-08-03T09:50:19.498Z,98406.78
2022-08-03T09:51:33.190Z,98395.69
2022-08-03T09:52:52.835Z,98392.22
2022-08-03T09:54:00.319Z,98398.84
2022-08-03T09:56:30.729Z,98403.62
2022-08-03T09:56:47.741Z,98400.34
2022-08-03T09:57:50.524Z,98398.66
2022-08-03T09:58:53.288Z,98396.72
2022-08-03T10:00:13.581Z,98404.44
2022-08-03T10:01:25.287Z,98387.88
2022-08-03T10:02:28.421Z,98395.84
2022-08-03T10:04:02.647Z,98393.75
2022-08-03T10:05:04.530Z,98396.72
2022-08-03T10:06:19.559Z,98384.97
2022-08-03T10:07:24.111Z,98383.88
2022-08-03T10:08:33.562Z,98384.66
2022-08-03T10:09:37.376Z,98379.16
2022-08-03T10:10:48.592Z,98386.72
2022-08-03T10:11:51.517Z,98385.25
2022-08-03T10:12:58.385Z,98384.97
2022-08-03T10:14:07.538Z,98387.69
2022-08-03T10:16:23.486Z,98376.25
2022-08-03T10:16:37.586Z,98379.16
2022-08-03T10:17:40.741Z,98381.56
2022-08-03T10:18:43.987Z,98379.88
2022-08-03T10:19:47.549Z,98380.22
2022-08-03T10:20:53.976Z,98371.81
2022-08-03T10:22:01.404Z,98379.63
2022-08-03T10:23:05.318Z,98376.22
2022-08-03T10:24:10.785Z,98379.97
2022-08-03T10:25:15.766Z,98374.12
2022-08-03T10:26:22.821Z,98377.91
2022-08-03T10:27:28.042Z,98376.66
2022-08-03T10:28:45.028Z,98371.06
2022-08-03T10:29:53.790Z,98371.59
2022-08-03T10:30:56.767Z,98377.59
2022-08-03T10:32:04.537Z,98372.38
2022-08-03T10:33:51.668Z,98371.72
2022-08-03T10:34:44.527Z,98372.03
2022-08-03T10:35:53.030Z,98371.63
2022-08-03T10:37:00.333Z,98377.47
2022-08-03T10:38:12.725Z,98367.03
2022-08-03T10:39:22.012Z,98368.78
2022-08-03T10:41:52.438Z,98362.84
2022-08-03T10:43:00.086Z,98369.72
2022-08-03T10:44:07.626Z,98370.94
2022-08-03T10:45:18.950Z,98363.84
2022-08-03T10:46:22.321Z,98362.28
2022-08-03T10:47:25.163Z,98366.31
2022-08-03T10:48:30.335Z,98359.34
2022-08-03T10:49:35.475Z,98364.56
2022-08-03T10:50:41.282Z,98353.81
2022-08-03T10:51:48.380Z,98352.44
2022-08-03T10:53:07.512Z,98352.13
2022-08-03T10:55:00.762Z,98356.59
2022-08-03T10:56:35.476Z,98350.66
2022-08-03T10:57:58.206Z,98344.34
2022-08-03T10:59:03.888Z,98347.50
2022-08-03T11:00:08.268Z,98350.38
2022-08-03T11:01:15.598Z,98342.50
2022-08-03T11:02:18.379Z,98344.44
2022-08-03T11:03:21.095Z,98344.09
2022-08-03T11:04:24.715Z,98344.22
2022-08-03T11:05:29.967Z,98342.62
2022-08-03T11:06:37.519Z,98341.16
2022-08-03T11:07:40.871Z,98338.16
2022-08-03T11:08:44.854Z,98337.13
2022-08-03T11:09:49.827Z,98335.62
2022-08-03T11:10:55.751Z,98333.13
2022-08-03T11:11:59.472Z,98335.31
2022-08-03T11:13:17.149Z,98329.06
2022-08-03T11:14:21.928Z,98322.31
2022-08-03T11:15:33.834Z,98320.44
2022-08-03T11:16:41.762Z,98331.28
2022-08-03T11:18:11.440Z,98322.38
2022-08-03T11:19:22.868Z,98327.78
2022-08-03T11:20:50.592Z,98319.53
2022-08-03T11:21:54.435Z,98325.66
2022-08-03T11:22:59.717Z,98326.34
2022-08-03T11:24:06.479Z,98318.34
2022-08-03T11:25:52.983Z,98313.25
2022-08-03T11:26:33.200Z,98309.47
2022-08-03T11:27:36.110Z,98311.00
2022-08-03T11:28:40.249Z,98318.16
2022-08-03T11:30:04.613Z,98314.88
2022-08-03T11:31:46.797Z,98313.25
2022-08-03T11:32:48.272Z,98308.25
2022-08-03T11:34:10.434Z,98309.16
2022-08-03T11:35:22.143Z,98317.50
2022-08-03T11:36:32.220Z,98307.31
2022-08-03T11:37:35.989Z,98306.12
2022-08-03T11:39:16.691Z,98311.38
2022-08-03T11:40:51.998Z,98315.16
2022-08-03T11:41:54.774Z,98302.91
2022-08-03T11:42:57.559Z,98311.91
2022-08-03T11:44:00.285Z,98306.22
2022-08-03T11:45:08.539Z,98308.59
2022-08-03T11:46:28.353Z,98313.91
2022-08-03T11:47:50.128Z,98302.56
2022-08-03T11:48:59.552Z,98300.38
2022-08-03T11:50:02.431Z,98299.25
2022-08-03T11:51:09.455Z,98299.25
2022-08-03T11:52:12.138Z,98305.88
2022-08-03T11:53:17.425Z,98296.47
2022-08-03T11:54:20.238Z,98297.84
2022-08-03T11:55:23.743Z,98300.63
2022-08-03T11:56:28.796Z,98294.97
2022-08-03T11:59:17.314Z,98300.50
2022-08-03T11:59:18.619Z,98297.78
2022-08-03T12:00:32.774Z,98303.44
2022-08-03T12:01:35.595Z,98296.38
2022-08-03T12:02:38.412Z,98299.91
2022-08-03T12:03:41.173Z,98307.13
2022-08-03T12:04:52.535Z,98305.06
2022-08-03T12:05:55.266Z,98304.50
2022-08-03T12:07:00.550Z,98300.84
2022-08-03T12:08:06.671Z,98297.22
2022-08-03T12:09:16.690Z,98295.22
2022-08-03T12:10:19.637Z,98308.53
2022-08-03T12:11:23.197Z,98294.44
2022-08-03T12:12:26.045Z,98296.13
2022-08-03T12:14:45.435Z,98293.00
2022-08-03T12:15:03.819Z,98294.84
2022-08-03T12:16:07.321Z,98301.28
2022-08-03T12:17:10.090Z,98300.44
2022-08-03T12:18:21.034Z,98294.78
2022-08-03T12:19:23.832Z,98300.16
2022-08-03T12:20:34.774Z,98295.84
2022-08-03T12:21:57.439Z,98300.81
2022-08-03T12:23:07.156Z,98297.38
2022-08-03T12:24:09.870Z,98295.63
2022-08-03T12:25:27.013Z,98301.03
2022-08-03T12:26:52.211Z,98298.97
2022-08-03T12:28:36.294Z,98286.78
2022-08-03T12:29:40.480Z,98281.50
2022-08-03T12:30:43.912Z,98292.16
2022-08-03T12:31:47.319Z,98285.84
2022-08-03T12:32:50.218Z,98291.59
2022-08-03T12:34:04.371Z,98288.44
2022-08-03T12:35:07.542Z,98284.28
2022-08-03T12:36:14.544Z,98285.19
2022-08-03T12:37:23.394Z,98279.03
2022-08-03T12:38:29.644Z,98282.50
2022-08-03T12:39:33.623Z,98283.44
2022-08-03T12:40:36.395Z,98283.97
2022-08-03T12:41:41.698Z,98284.31
2022-08-03T12:42:47.612Z,98276.72
2022-08-03T12:43:50.688Z,98280.25
2022-08-03T12:44:56.290Z,98273.44
2022-08-03T12:46:12.750Z,98274.53
2022-08-03T12:47:16.239Z,98269.13
2022-08-03T12:48:19.393Z,98279.53
2022-08-03T12:49:26.946Z,98272.81
2022-08-03T12:50:32.014Z,98267.84
2022-08-03T12:51:57.523Z,98273.41
2022-08-03T12:53:04.940Z,98279.31
2022-08-03T12:54:07.740Z,98279.50
2022-08-03T12:55:23.707Z,98279.53
2022-08-03T12:56:30.591Z,98277.00
2022-08-03T12:57:43.442Z,98272.75
2022-08-03T12:58:48.035Z,98272.97
2022-08-03T12:59:53.407Z,98279.00
2022-08-03T13:00:56.938Z,98277.84
2022-08-03T13:02:00.532Z,98275.56
2022-08-03T13:04:34.714Z,98278.09
2022-08-03T13:05:46.853Z,98273.06
2022-08-03T13:07:06.778Z,98262.87
2022-08-03T13:08:23.785Z,98266.00
2022-08-03T13:09:26.642Z,98258.28
2022-08-03T13:10:33.597Z,98261.88
2022-08-03T13:12:01.991Z,98261.63
2022-08-03T13:13:04.895Z,98257.78
2022-08-03T13:14:07.643Z,98250.59
2022-08-03T13:15:10.520Z,98258.13
2022-08-03T13:16:18.733Z,98259.06
2022-08-03T13:17:22.318Z,98245.41
2022-08-03T13:18:25.484Z,98253.75
2022-08-03T13:19:28.348Z,98259.47
2022-08-03T13:20:31.088Z,98249.38
2022-08-03T13:21:33.839Z,98254.34
2022-08-03T13:23:00.588Z,98246.19
2022-08-03T13:24:03.884Z,98253.66
2022-08-03T13:25:07.143Z,98240.47
2022-08-03T13:26:10.943Z,98237.31
2022-08-03T13:27:58.840Z,98245.66
2022-08-03T13:28:38.791Z,98240.19
2022-08-03T13:29:43.606Z,98244.38
2022-08-03T13:30:46.472Z,98246.34
2022-08-03T13:31:50.955Z,98240.19